sensor_id;sensor_type;location;lat;lon;timestamp;pressure;altitude;pressure_sealevel;temperature
13304;BMP280;6720;51.958;4.540;2022-12-31T00:00:53;100036.94;;;13.36
13304;BMP280;6720;51.958;4.540;2022-12-31T00:03:19;100037.97;;;13.32
13304;BMP280;6720;51.958;4.540;2022-12-31T00:05:44;100014.50;;;13.27
13304;BMP280;6720;51.958;4.540;2022-12-31T00:08:09;100043.03;;;13.36
13304;BMP280;6720;51.958;4.540;2022-12-31T00:10:35;100040.34;;;13.38
13304;BMP280;6720;51.958;4.540;2022-12-31T00:13:06;100046.84;;;13.29
13304;BMP280;6720;51.958;4.540;2022-12-31T00:15:32;100043.31;;;13.30
13304;BMP280;6720;51.958;4.540;2022-12-31T00:17:58;100041.59;;;13.29
13304;BMP280;6720;51.958;4.540;2022-12-31T00:20:23;100046.84;;;13.29
13304;BMP280;6720;51.958;4.540;2022-12-31T00:22:49;100046.59;;;13.35
13304;BMP280;6720;51.958;4.540;2022-12-31T00:25:14;100054.53;;;13.34
13304;BMP280;6720;51.958;4.540;2022-12-31T00:27:39;100045.47;;;13.41
13304;BMP280;6720;51.958;4.540;2022-12-31T00:30:05;100057.91;;;13.37
13304;BMP280;6720;51.958;4.540;2022-12-31T00:32:31;100043.19;;;13.33
13304;BMP280;6720;51.958;4.540;2022-12-31T00:34:56;100052.13;;;13.29
13304;BMP280;6720;51.958;4.540;2022-12-31T00:37:21;100052.88;;;13.31
13304;BMP280;6720;51.958;4.540;2022-12-31T00:39:47;100045.94;;;13.30
13304;BMP280;6720;51.958;4.540;2022-12-31T00:42:14;100045.13;;;13.28
13304;BMP280;6720;51.958;4.540;2022-12-31T00:44:39;100044.34;;;13.26
13304;BMP280;6720;51.958;4.540;2022-12-31T00:47:04;100035.47;;;13.29
13304;BMP280;6720;51.958;4.540;2022-12-31T00:49:30;100048.72;;;13.26
13304;BMP280;6720;51.958;4.540;2022-12-31T00:51:55;100033.78;;;13.28
13304;BMP280;6720;51.958;4.540;2022-12-31T00:54:20;100026.19;;;13.20
13304;BMP280;6720;51.958;4.540;2022-12-31T00:56:46;100039.38;;;13.19
13304;BMP280;6720;51.958;4.540;2022-12-31T00:59:11;100046.53;;;13.15
13304;BMP280;6720;51.958;4.540;2022-12-31T01:01:38;100024.59;;;13.16
13304;BMP280;6720;51.958;4.540;2022-12-31T01:04:15;100039.25;;;13.22
13304;BMP280;6720;51.958;4.540;2022-12-31T01:06:42;100035.00;;;13.19
13304;BMP280;6720;51.958;4.540;2022-12-31T01:09:09;100042.22;;;13.14
13304;BMP280;6720;51.958;4.540;2022-12-31T01:11:34;100030.44;;;13.23
13304;BMP280;6720;51.958;4.540;2022-12-31T01:14:09;100023.66;;;13.17
13304;BMP280;6720;51.958;4.540;2022-12-31T01:16:41;100032.53;;;13.15
13304;BMP280;6720;51.958;4.540;2022-12-31T01:19:09;100011.91;;;13.06
13304;BMP280;6720;51.958;4.540;2022-12-31T01:21:39;100016.16;;;13.08
13304;BMP280;6720;51.958;4.540;2022-12-31T01:24:09;100021.38;;;13.10
13304;BMP280;6720;51.958;4.540;2022-12-31T01:26:35;100028.03;;;13.18
13304;BMP280;6720;51.958;4.540;2022-12-31T01:29:01;100028.25;;;13.12
13304;BMP280;6720;51.958;4.540;2022-12-31T01:31:26;100022.22;;;13.10
13304;BMP280;6720;51.958;4.540;2022-12-31T01:33:52;100024.38;;;13.01
13304;BMP280;6720;51.958;4.540;2022-12-31T01:36:20;100034.75;;;13.04
13304;BMP280;6720;51.958;4.540;2022-12-31T01:38:46;100031.63;;;12.93
13304;BMP280;6720;51.958;4.540;2022-12-31T01:41:33;100033.00;;;12.81
13304;BMP280;6720;51.958;4.540;2022-12-31T01:44:47;100030.81;;;12.92
13304;BMP280;6720;51.958;4.540;2022-12-31T01:46:49;100046.56;;;12.92
13304;BMP280;6720;51.958;4.540;2022-12-31T01:49:30;100025.88;;;12.83
13304;BMP280;6720;51.958;4.540;2022-12-31T01:52:05;100025.00;;;12.84
13304;BMP280;6720;51.958;4.540;2022-12-31T01:54:39;100015.03;;;12.71
13304;BMP280;6720;51.958;4.540;2022-12-31T01:57:08;100006.94;;;12.75
13304;BMP280;6720;51.958;4.540;2022-12-31T01:59:35;100000.44;;;12.64
13304;BMP280;6720;51.958;4.540;2022-12-31T02:02:01;99979.41;;;12.64
13304;BMP280;6720;51.958;4.540;2022-12-31T02:04:28;100000.38;;;12.65
13304;BMP280;6720;51.958;4.540;2022-12-31T02:07:00;100003.94;;;12.63
13304;BMP280;6720;51.958;4.540;2022-12-31T02:09:25;100011.09;;;12.59
13304;BMP280;6720;51.958;4.540;2022-12-31T02:11:51;100016.34;;;12.59
13304;BMP280;6720;51.958;4.540;2022-12-31T02:14:31;100030.28;;;12.61
13304;BMP280;6720;51.958;4.540;2022-12-31T02:31:11;100067.25;;;12.55
13304;BMP280;6720;51.958;4.540;2022-12-31T02:33:59;100065.31;;;12.60
13304;BMP280;6720;51.958;4.540;2022-12-31T02:36:33;100058.34;;;12.59
13304;BMP280;6720;51.958;4.540;2022-12-31T02:39:01;100051.50;;;12.55
13304;BMP280;6720;51.958;4.540;2022-12-31T02:41:28;100066.53;;;12.52
13304;BMP280;6720;51.958;4.540;2022-12-31T02:52:38;100078.75;;;12.28
13304;BMP280;6720;51.958;4.540;2022-12-31T02:58:24;100077.91;;;12.28
13304;BMP280;6720;51.958;4.540;2022-12-31T03:00:54;100085.09;;;12.23
13304;BMP280;6720;51.958;4.540;2022-12-31T03:03:40;100093.00;;;12.21
13304;BMP280;6720;51.958;4.540;2022-12-31T03:06:07;100083.44;;;12.20
13304;BMP280;6720;51.958;4.540;2022-12-31T03:08:33;100064.41;;;12.14
13304;BMP280;6720;51.958;4.540;2022-12-31T03:11:19;100072.03;;;12.21
13304;BMP280;6720;51.958;4.540;2022-12-31T03:14:04;100071.28;;;12.18
13304;BMP280;6720;51.958;4.540;2022-12-31T03:16:30;100085.09;;;12.23
13304;BMP280;6720;51.958;4.540;2022-12-31T03:18:55;100071.44;;;12.13
13304;BMP280;6720;51.958;4.540;2022-12-31T03:21:39;100076.44;;;12.19
13304;BMP280;6720;51.958;4.540;2022-12-31T03:24:23;100067.31;;;12.06
13304;BMP280;6720;51.958;4.540;2022-12-31T03:27:07;100071.50;;;12.12
13304;BMP280;6720;51.958;4.540;2022-12-31T03:29:32;100053.06;;;12.13
13304;BMP280;6720;51.958;4.540;2022-12-31T03:31:57;100055.13;;;12.05
13304;BMP280;6720;51.958;4.540;2022-12-31T03:34:23;100041.81;;;12.10
13304;BMP280;6720;51.958;4.540;2022-12-31T03:36:48;100046.34;;;12.06
13304;BMP280;6720;51.958;4.540;2022-12-31T03:39:13;100042.00;;;12.05
13304;BMP280;6720;51.958;4.540;2022-12-31T03:41:39;100037.66;;;12.04
13304;BMP280;6720;51.958;4.540;2022-12-31T03:44:04;100032.84;;;11.92
13304;BMP280;6720;51.958;4.540;2022-12-31T03:46:29;100027.50;;;11.95
13304;BMP280;6720;51.958;4.540;2022-12-31T03:48:55;100012.38;;;12.02
13304;BMP280;6720;51.958;4.540;2022-12-31T03:51:20;100017.63;;;12.02
13304;BMP280;6720;51.958;4.540;2022-12-31T03:53:46;100032.75;;;11.95
13304;BMP280;6720;51.958;4.540;2022-12-31T03:56:11;100028.66;;;11.87
13304;BMP280;6720;51.958;4.540;2022-12-31T03:58:36;100052.22;;;11.88
13304;BMP280;6720;51.958;4.540;2022-12-31T04:01:02;100038.31;;;11.86
13304;BMP280;6720;51.958;4.540;2022-12-31T04:03:27;100033.75;;;11.91
13304;BMP280;6720;51.958;4.540;2022-12-31T04:05:54;100040.59;;;11.95
13304;BMP280;6720;51.958;4.540;2022-12-31T04:08:19;100022.78;;;11.80
13304;BMP280;6720;51.958;4.540;2022-12-31T04:10:45;100041.72;;;11.88
13304;BMP280;6720;51.958;4.540;2022-12-31T04:13:10;100050.63;;;11.84
13304;BMP280;6720;51.958;4.540;2022-12-31T04:15:35;100031.47;;;11.82
13304;BMP280;6720;51.958;4.540;2022-12-31T04:18:01;100038.94;;;11.68
13304;BMP280;6720;51.958;4.540;2022-12-31T04:20:26;100049.97;;;11.78
13304;BMP280;6720;51.958;4.540;2022-12-31T04:22:52;100049.19;;;11.74
13304;BMP280;6720;51.958;4.540;2022-12-31T04:25:17;100025.75;;;11.71
13304;BMP280;6720;51.958;4.540;2022-12-31T04:27:42;100041.41;;;11.73
13304;BMP280;6720;51.958;4.540;2022-12-31T04:30:09;100038.31;;;11.62
13304;BMP280;6720;51.958;4.540;2022-12-31T04:32:35;100031.09;;;11.68
13304;BMP280;6720;51.958;4.540;2022-12-31T04:35:00;100025.00;;;11.66
13304;BMP280;6720;51.958;4.540;2022-12-31T04:37:26;100026.63;;;11.70
13304;BMP280;6720;51.958;4.540;2022-12-31T04:39:51;100030.25;;;11.66
13304;BMP280;6720;51.958;4.540;2022-12-31T04:42:16;100026.75;;;11.67
13304;BMP280;6720;51.958;4.540;2022-12-31T04:44:42;100024.00;;;11.70
13304;BMP280;6720;51.958;4.540;2022-12-31T04:47:07;100029.41;;;11.66
13304;BMP280;6720;51.958;4.540;2022-12-31T04:49:32;100040.56;;;11.72
13304;BMP280;6720;51.958;4.540;2022-12-31T04:51:58;100031.56;;;11.79
13304;BMP280;6720;51.958;4.540;2022-12-31T04:54:23;100033.97;;;11.85
13304;BMP280;6720;51.958;4.540;2022-12-31T04:56:49;100034.19;;;11.79
13304;BMP280;6720;51.958;4.540;2022-12-31T04:59:14;100032.09;;;11.89
13304;BMP280;6720;51.958;4.540;2022-12-31T05:01:39;100032.84;;;11.92
13304;BMP280;6720;51.958;4.540;2022-12-31T05:04:05;100033.59;;;11.96
13304;BMP280;6720;51.958;4.540;2022-12-31T05:06:30;100035.88;;;12.05
13304;BMP280;6720;51.958;4.540;2022-12-31T05:08:56;100051.53;;;12.08
13304;BMP280;6720;51.958;4.540;2022-12-31T05:11:21;100051.38;;;12.12
13304;BMP280;6720;51.958;4.540;2022-12-31T05:13:47;100033.69;;;12.17
13304;BMP280;6720;51.958;4.540;2022-12-31T05:16:12;100037.91;;;12.21
13304;BMP280;6720;51.958;4.540;2022-12-31T05:18:38;100025.72;;;12.20
13304;BMP280;6720;51.958;4.540;2022-12-31T05:21:04;100040.19;;;12.30
13304;BMP280;6720;51.958;4.540;2022-12-31T05:23:30;100043.63;;;12.32
13304;BMP280;6720;51.958;4.540;2022-12-31T05:25:55;100034.69;;;12.38
13304;BMP280;6720;51.958;4.540;2022-12-31T05:28:23;100039.63;;;12.45
13304;BMP280;6720;51.958;4.540;2022-12-31T05:30:49;100030.78;;;12.48
13304;BMP280;6720;51.958;4.540;2022-12-31T05:33:16;100035.91;;;12.51
13304;BMP280;6720;51.958;4.540;2022-12-31T05:35:41;100030.50;;;12.55
13304;BMP280;6720;51.958;4.540;2022-12-31T05:38:08;100018.53;;;12.48
13304;BMP280;6720;51.958;4.540;2022-12-31T05:40:34;100024.28;;;12.58
13304;BMP280;6720;51.958;4.540;2022-12-31T05:43:00;100032.91;;;12.61
13304;BMP280;6720;51.958;4.540;2022-12-31T05:45:26;100023.19;;;12.63
13304;BMP280;6720;51.958;4.540;2022-12-31T05:47:51;100008.31;;;12.64
13304;BMP280;6720;51.958;4.540;2022-12-31T05:50:17;100029.06;;;12.70
13304;BMP280;6720;51.958;4.540;2022-12-31T05:52:43;100035.91;;;12.74
13304;BMP280;6720;51.958;4.540;2022-12-31T05:55:10;100026.25;;;12.74
13304;BMP280;6720;51.958;4.540;2022-12-31T05:57:35;100035.78;;;12.77
13304;BMP280;6720;51.958;4.540;2022-12-31T06:00:03;100039.09;;;12.82
13304;BMP280;6720;51.958;4.540;2022-12-31T06:02:29;100037.31;;;12.82
13304;BMP280;6720;51.958;4.540;2022-12-31T06:04:54;100043.38;;;12.84
13304;BMP280;6720;51.958;4.540;2022-12-31T06:07:19;100044.72;;;12.94
13304;BMP280;6720;51.958;4.540;2022-12-31T06:09:45;100046.34;;;12.98
13304;BMP280;6720;51.958;4.540;2022-12-31T06:12:10;100043.13;;;12.90
13304;BMP280;6720;51.958;4.540;2022-12-31T06:14:36;100054.81;;;13.06
13304;BMP280;6720;51.958;4.540;2022-12-31T06:17:02;100065.16;;;13.09
13304;BMP280;6720;51.958;4.540;2022-12-31T06:19:27;100058.94;;;13.12
13304;BMP280;6720;51.958;4.540;2022-12-31T06:21:52;100064.13;;;13.13
13304;BMP280;6720;51.958;4.540;2022-12-31T06:24:18;100058.69;;;13.18
13304;BMP280;6720;51.958;4.540;2022-12-31T06:26:43;100050.75;;;13.19
13304;BMP280;6720;51.958;4.540;2022-12-31T06:29:09;100057.59;;;13.23
13304;BMP280;6720;51.958;4.540;2022-12-31T06:31:34;100053.69;;;13.33
13304;BMP280;6720;51.958;4.540;2022-12-31T06:34:01;100048.28;;;13.36
13304;BMP280;6720;51.958;4.540;2022-12-31T06:36:26;100061.44;;;13.36
13304;BMP280;6720;51.958;4.540;2022-12-31T06:38:52;100045.47;;;13.41
13304;BMP280;6720;51.958;4.540;2022-12-31T06:41:17;100047.94;;;13.45
13304;BMP280;6720;51.958;4.540;2022-12-31T06:43:43;100032.16;;;13.45
13304;BMP280;6720;51.958;4.540;2022-12-31T06:46:12;100046.66;;;13.55
13304;BMP280;6720;51.958;4.540;2022-12-31T06:48:38;100048.88;;;13.64
13304;BMP280;6720;51.958;4.540;2022-12-31T06:51:05;100037.78;;;13.58
13304;BMP280;6720;51.958;4.540;2022-12-31T06:53:31;100055.53;;;13.73
13304;BMP280;6720;51.958;4.540;2022-12-31T06:55:57;100057.06;;;13.78
13304;BMP280;6720;51.958;4.540;2022-12-31T06:58:23;100057.13;;;13.77
13304;BMP280;6720;51.958;4.540;2022-12-31T07:04:10;100047.84;;;13.88
13304;BMP280;6720;51.958;4.540;2022-12-31T07:06:49;100072.50;;;13.86
13304;BMP280;6720;51.958;4.540;2022-12-31T07:09:22;100068.63;;;13.94
13304;BMP280;6720;51.958;4.540;2022-12-31T07:11:59;100078.88;;;14.00
13304;BMP280;6720;51.958;4.540;2022-12-31T07:20:05;100096.84;;;14.11
13304;BMP280;6720;51.958;4.540;2022-12-31T07:22:31;100074.81;;;14.13
13304;BMP280;6720;51.958;4.540;2022-12-31T07:24:57;100069.94;;;14.04
13304;BMP280;6720;51.958;4.540;2022-12-31T07:33:40;100089.03;;;14.09
13304;BMP280;6720;51.958;4.540;2022-12-31T07:36:25;100086.09;;;14.15
13304;BMP280;6720;51.958;4.540;2022-12-31T07:39:00;100090.47;;;14.16
13304;BMP280;6720;51.958;4.540;2022-12-31T07:41:40;100094.69;;;14.20
13304;BMP280;6720;51.958;4.540;2022-12-31T07:44:28;100082.31;;;14.22
13304;BMP280;6720;51.958;4.540;2022-12-31T07:47:00;100081.44;;;14.23
13304;BMP280;6720;51.958;4.540;2022-12-31T07:49:27;100083.13;;;14.24
13304;BMP280;6720;51.958;4.540;2022-12-31T07:51:54;100087.34;;;14.28
13304;BMP280;6720;51.958;4.540;2022-12-31T07:54:20;100074.56;;;14.19
13304;BMP280;6720;51.958;4.540;2022-12-31T07:56:46;100088.41;;;14.24
13304;BMP280;6720;51.958;4.540;2022-12-31T07:59:20;100090.22;;;14.22
13304;BMP280;6720;51.958;4.540;2022-12-31T08:04:52;100121.94;;;14.19
13304;BMP280;6720;51.958;4.540;2022-12-31T08:10:37;100143.38;;;14.10
13304;BMP280;6720;51.958;4.540;2022-12-31T08:13:08;100145.75;;;14.16
13304;BMP280;6720;51.958;4.540;2022-12-31T08:15:37;100138.50;;;14.01
13304;BMP280;6720;51.958;4.540;2022-12-31T08:18:03;100146.94;;;14.09
13304;BMP280;6720;51.958;4.540;2022-12-31T08:20:29;100159.34;;;14.06
13304;BMP280;6720;51.958;4.540;2022-12-31T08:23:27;100154.16;;;14.04
13304;BMP280;6720;51.958;4.540;2022-12-31T08:26:10;100172.59;;;14.04
13304;BMP280;6720;51.958;4.540;2022-12-31T08:29:23;100159.44;;;14.04
13304;BMP280;6720;51.958;4.540;2022-12-31T08:31:49;100171.66;;;14.05
13304;BMP280;6720;51.958;4.540;2022-12-31T08:34:23;100183.03;;;14.06
13304;BMP280;6720;51.958;4.540;2022-12-31T08:36:55;100174.81;;;14.13
13304;BMP280;6720;51.958;4.540;2022-12-31T08:45:00;100176.47;;;14.16
13304;BMP280;6720;51.958;4.540;2022-12-31T08:48:28;100207.13;;;14.17
13304;BMP280;6720;51.958;4.540;2022-12-31T08:50:55;100205.41;;;14.16
13304;BMP280;6720;51.958;4.540;2022-12-31T08:53:21;100201.81;;;14.18
13304;BMP280;6720;51.958;4.540;2022-12-31T08:55:50;100224.47;;;14.22
13304;BMP280;6720;51.958;4.540;2022-12-31T08:58:52;100199.88;;;14.23
13304;BMP280;6720;51.958;4.540;2022-12-31T09:01:13;100196.97;;;14.29
13304;BMP280;6720;51.958;4.540;2022-12-31T09:04:12;100201.31;;;14.30
13304;BMP280;6720;51.958;4.540;2022-12-31T09:06:55;100176.28;;;14.20
13304;BMP280;6720;51.958;4.540;2022-12-31T09:12:19;100209.56;;;14.43
13304;BMP280;6720;51.958;4.540;2022-12-31T09:14:57;100199.09;;;14.41
13304;BMP280;6720;51.958;4.540;2022-12-31T09:17:36;100204.28;;;14.43
13304;BMP280;6720;51.958;4.540;2022-12-31T09:20:04;100187.25;;;14.51
13304;BMP280;6720;51.958;4.540;2022-12-31T09:22:30;100203.19;;;14.48
13304;BMP280;6720;51.958;4.540;2022-12-31T09:24:56;100205.69;;;14.51
13304;BMP280;6720;51.958;4.540;2022-12-31T09:29:59;100224.13;;;14.51
13304;BMP280;6720;51.958;4.540;2022-12-31T09:35:47;100236.88;;;14.60
13304;BMP280;6720;51.958;4.540;2022-12-31T09:57:40;100246.03;;;14.92
13304;BMP280;6720;51.958;4.540;2022-12-31T10:16:52;100262.47;;;14.99
13304;BMP280;6720;51.958;4.540;2022-12-31T10:22:13;100266.56;;;15.04
13304;BMP280;6720;51.958;4.540;2022-12-31T10:27:36;100258.47;;;15.09
13304;BMP280;6720;51.958;4.540;2022-12-31T10:30:18;100260.34;;;15.07
13304;BMP280;6720;51.958;4.540;2022-12-31T10:32:57;100268.88;;;15.12
13304;BMP280;6720;51.958;4.540;2022-12-31T10:35:53;100273.50;;;15.07
13304;BMP280;6720;51.958;4.540;2022-12-31T10:38:28;100266.00;;;14.98
13304;BMP280;6720;51.958;4.540;2022-12-31T10:44:13;100314.75;;;15.08
13304;BMP280;6720;51.958;4.540;2022-12-31T11:01:16;100292.22;;;15.01
13304;BMP280;6720;51.958;4.540;2022-12-31T11:12:04;100272.78;;;15.23
13304;BMP280;6720;51.958;4.540;2022-12-31T11:20:27;100285.13;;;15.41
13304;BMP280;6720;51.958;4.540;2022-12-31T11:34:22;100281.53;;;15.24
13304;BMP280;6720;51.958;4.540;2022-12-31T11:39:38;100273.34;;;15.30
13304;BMP280;6720;51.958;4.540;2022-12-31T11:42:19;100269.53;;;15.37
13304;BMP280;6720;51.958;4.540;2022-12-31T11:44:54;100252.31;;;15.28
13304;BMP280;6720;51.958;4.540;2022-12-31T11:47:33;100266.06;;;15.35
13304;BMP280;6720;51.958;4.540;2022-12-31T11:50:43;100262.78;;;15.30
13304;BMP280;6720;51.958;4.540;2022-12-31T11:53:27;100253.94;;;15.31
13304;BMP280;6720;51.958;4.540;2022-12-31T11:56:17;100261.56;;;15.38
13304;BMP280;6720;51.958;4.540;2022-12-31T11:58:48;100247.56;;;15.36
13304;BMP280;6720;51.958;4.540;2022-12-31T12:01:31;100249.84;;;15.44
13304;BMP280;6720;51.958;4.540;2022-12-31T12:03:57;100239.69;;;15.35
13304;BMP280;6720;51.958;4.540;2022-12-31T12:06:30;100249.53;;;15.31
13304;BMP280;6720;51.958;4.540;2022-12-31T12:09:02;100234.41;;;15.35
13304;BMP280;6720;51.958;4.540;2022-12-31T12:11:34;100250.25;;;15.35
13304;BMP280;6720;51.958;4.540;2022-12-31T12:14:20;100245.09;;;15.32
13304;BMP280;6720;51.958;4.540;2022-12-31T12:16:46;100248.69;;;15.31
13304;BMP280;6720;51.958;4.540;2022-12-31T12:19:17;100252.03;;;15.34
13304;BMP280;6720;51.958;4.540;2022-12-31T12:21:47;100265.97;;;15.38
13304;BMP280;6720;51.958;4.540;2022-12-31T12:24:27;100277.38;;;15.38
13304;BMP280;6720;51.958;4.540;2022-12-31T12:26:54;100266.91;;;15.37
13304;BMP280;6720;51.958;4.540;2022-12-31T12:29:24;100272.94;;;15.39
13304;BMP280;6720;51.958;4.540;2022-12-31T12:34:32;100271.25;;;15.38
13304;BMP280;6720;51.958;4.540;2022-12-31T12:36:58;100268.59;;;15.38
13304;BMP280;6720;51.958;4.540;2022-12-31T12:39:31;100274.06;;;15.33
13304;BMP280;6720;51.958;4.540;2022-12-31T12:42:10;100263.19;;;15.41
13304;BMP280;6720;51.958;4.540;2022-12-31T12:44:37;100252.66;;;15.41
13304;BMP280;6720;51.958;4.540;2022-12-31T12:47:05;100262.41;;;15.39
13304;BMP280;6720;51.958;4.540;2022-12-31T12:49:52;100250.25;;;15.35
13304;BMP280;6720;51.958;4.540;2022-12-31T12:57:28;100242.59;;;15.29
13304;BMP280;6720;51.958;4.540;2022-12-31T13:00:08;100254.22;;;15.25
13304;BMP280;6720;51.958;4.540;2022-12-31T13:02:56;100248.94;;;15.25
13304;BMP280;6720;51.958;4.540;2022-12-31T13:13:27;100277.44;;;15.17
13304;BMP280;6720;51.958;4.540;2022-12-31T13:16:23;100271.53;;;15.12
13304;BMP280;6720;51.958;4.540;2022-12-31T13:19:10;100272.00;;;15.01
13304;BMP280;6720;51.958;4.540;2022-12-31T13:22:08;100280.31;;;15.12
13304;BMP280;6720;51.958;4.540;2022-12-31T13:30:01;100269.69;;;14.94
13304;BMP280;6720;51.958;4.540;2022-12-31T13:32:40;100281.69;;;15.01
13304;BMP280;6720;51.958;4.540;2022-12-31T13:35:27;100275.63;;;14.99
13304;BMP280;6720;51.958;4.540;2022-12-31T13:38:26;100286.81;;;15.04
13304;BMP280;6720;51.958;4.540;2022-12-31T13:40:59;100279.03;;;15.01
13304;BMP280;6720;51.958;4.540;2022-12-31T13:43:36;100294.78;;;15.02
13304;BMP280;6720;51.958;4.540;2022-12-31T13:55:10;100310.41;;;14.87
13304;BMP280;6720;51.958;4.540;2022-12-31T13:57:42;100301.66;;;14.86
13304;BMP280;6720;51.958;4.540;2022-12-31T14:05:34;100306.88;;;14.88
13304;BMP280;6720;51.958;4.540;2022-12-31T14:08:04;100308.28;;;14.95
13304;BMP280;6720;51.958;4.540;2022-12-31T14:10:40;100287.38;;;14.92
13304;BMP280;6720;51.958;4.540;2022-12-31T14:13:55;100289.19;;;14.90
13304;BMP280;6720;51.958;4.540;2022-12-31T14:24:46;100304.13;;;14.89
13304;BMP280;6720;51.958;4.540;2022-12-31T14:27:24;100292.75;;;14.89
13304;BMP280;6720;51.958;4.540;2022-12-31T14:30:28;100298.03;;;14.89
13304;BMP280;6720;51.958;4.540;2022-12-31T14:33:32;100291.84;;;14.90
13304;BMP280;6720;51.958;4.540;2022-12-31T15:29:50;100298.41;;;15.20
13304;BMP280;6720;51.958;4.540;2022-12-31T15:32:22;100286.47;;;15.31
13304;BMP280;6720;51.958;4.540;2022-12-31T15:35:56;100279.53;;;15.29
13304;BMP280;6720;51.958;4.540;2022-12-31T15:39:00;100292.00;;;15.25
13304;BMP280;6720;51.958;4.540;2022-12-31T15:45:45;100283.56;;;15.37
13304;BMP280;6720;51.958;4.540;2022-12-31T15:52:01;100278.09;;;15.42
13304;BMP280;6720;51.958;4.540;2022-12-31T15:54:53;100280.72;;;15.42
13304;BMP280;6720;51.958;4.540;2022-12-31T15:57:54;100301.03;;;15.40
